• Join FlightAware (Why Join?)
  • Login
  • US Flag 
09:33PM EDT


 

Airport Tracker/Info


-or-


 

Live Flight TrackerFlight Track Log ✈ AFL150 ✈ 26-Oct-2013 ✈ UUEE / SVO - MUHA / HAV

Flight Track Log - Related Links

Times and Time Zones

All times are in EDT time to prevent confusion due to time zone crossing. See the AFL150 flight status page for this flight to view local times or setup timezone preferences in your user account.

Time Position Orientation Groundspeed Altitude Reporting Facility
EDT Latitude Longitude Course Direction KTS MPH feet Rate Location/Type
09:36AM 55.9660 37.3810 239° Southwest 178 205 1,200  Level FlightAware
09:37AM 55.9580 37.3220 256° West 175 201 2,900 1,620 Climbing FlightAware
09:37AM 55.9520 37.2730 258° West 210 242 3,300 1,320 Climbing FlightAware
09:38AM 55.9740 37.1750 292° West 250 288 4,800 1,560 Climbing FlightAware
09:39AM 55.9950 37.0930 295° West 251 289 5,900 2,100 Climbing FlightAware
09:40AM 56.0160 37.0110 295° West 253 291 7,800 2,580 Climbing FlightAware
09:40AM 56.0350 36.9370 295° West 258 297 9,400 2,280 Climbing FlightAware
09:41AM 56.0510 36.8730 294° West 267 307 10,600 1,980 Climbing FlightAware
09:42AM 56.0720 36.7910 295° West 290 334 11,800 1,620 Climbing FlightAware
09:42AM 56.0960 36.6930 294° West 318 366 12,900 1,560 Climbing FlightAware
09:43AM 56.1220 36.5890 294° West 338 389 14,000 2,340 Climbing FlightAware
09:44AM 56.1500 36.4780 294° West 326 375 16,200 2,580 Climbing FlightAware
09:44AM 56.1670 36.4080 294° West 330 380 17,100 2,220 Climbing FlightAware
09:45AM 56.1890 36.3180 294° West 330 380 18,600 2,100 Climbing FlightAware
09:45AM 56.2090 36.2370 294° West 335 386 19,500 1,860 Climbing FlightAware
09:46AM 56.2380 36.1160 293° West 337 388 21,100 1,740 Climbing FlightAware
09:47AM 56.2710 35.9810 294° West 347 399 22,400 1,380 Climbing FlightAware
09:48AM 56.3000 35.8620 294° West 358 412 23,400 1,380 Climbing FlightAware
09:48AM 56.3290 35.7410 293° West 362 417 24,500 1,500 Climbing FlightAware
09:49AM 56.3580 35.6200 293° West 365 420 25,600 1,380 Climbing FlightAware
09:50AM 56.3790 35.5300 293° West 368 423 26,300 1,260 Climbing FlightAware
09:50AM 56.4010 35.4390 294° West 370 426 27,000 1,260 Climbing FlightAware
09:51AM 56.4250 35.3350 293° West 372 428 27,800 1,140 Climbing FlightAware
09:52AM 56.4560 35.2020 293° West 376 433 28,600 1,020 Climbing FlightAware
09:52AM 56.4830 35.0960 295° West 382 440 29,200 960 Climbing FlightAware
09:53AM 56.5180 34.9970 303° West 387 445 29,800 900 Climbing FlightAware
09:54AM 56.5740 34.8820 312° West 397 457 30,500 900 Climbing FlightAware
09:54AM 56.6390 34.7920 323° Northwest 407 468 31,200 840 Climbing FlightAware
09:55AM 56.7050 34.7200 329° Northwest 411 473 31,700 1,020 Climbing FlightAware
09:55AM 56.7490 34.6710 329° Northwest 405 466 32,400 1,380 Climbing FlightAware
09:56AM 56.8080 34.6030 328° Northwest 397 457 33,300 840 Climbing FlightAware
09:57AM 56.8790 34.5200 327° Northwest 404 465 33,600 420 Climbing FlightAware
09:58AM 56.9450 34.4440 328° Northwest 411 473 33,900 240 Climbing FlightAware
09:58AM 57.0280 34.3460 327° Northwest 415 478 34,000 60 Climbing FlightAware
09:59AM 57.0860 34.2780 328° Northwest 413 475 34,000  Level FlightAware
10:00AM 57.1440 34.2100 328° Northwest 411 473 34,000  Level FlightAware
10:00AM 57.2060 34.1360 327° Northwest 412 474 34,000  Level FlightAware
10:01AM 57.2720 34.0580 327° Northwest 412 474 34,000  Level FlightAware
10:02AM 57.3410 33.9740 327° Northwest 411 473 34,000  Level FlightAware
10:02AM 57.3950 33.9090 327° Northwest 410 472 34,000  Level FlightAware
10:03AM 57.4520 33.8410 327° Northwest 406 467 34,000  Level FlightAware
10:04AM 57.5250 33.7520 327° Northwest 406 467 34,000  Level FlightAware
10:04AM 57.5900 33.6740 327° Northwest 407 468 34,000  Level FlightAware
10:05AM 57.6620 33.5860 327° Northwest 408 470 34,000  Level FlightAware
10:06AM 57.7260 33.5070 327° Northwest 405 466 34,000  Level FlightAware
10:06AM 57.7800 33.4390 326° Northwest 403 464 34,000  Level FlightAware
10:07AM 57.8260 33.3800 326° Northwest 404 465 34,000  Level FlightAware
10:08AM 57.8930 33.2930 325° Northwest 405 466 34,000  Level FlightAware
10:08AM 57.9550 33.2130 326° Northwest 405 466 34,000  Level FlightAware
10:09AM 58.0110 33.1400 325° Northwest 405 466 34,000  Level FlightAware
10:09AM 58.0680 33.0660 326° Northwest 404 465 34,000  Level FlightAware
10:10AM 58.1330 32.9800 325° Northwest 404 465 34,000  Level FlightAware
10:11AM 58.1490 32.9590 325° Northwest 404 465 34,000  Level FlightAware
10:12AM 58.2450 32.8310 325° Northwest 404 465 34,000  Level FlightAware
10:13AM 58.3250 32.7250 325° Northwest 404 465 34,000  Level FlightAware
10:13AM 58.3720 32.6630 325° Northwest 404 465 34,000  Level FlightAware
10:14AM 58.4200 32.5980 325° Northwest 404 465 34,000  Level FlightAware
10:15AM 58.5600 32.3160 314° West 398 458 34,000  Level FlightAware
10:16AM 58.6180 32.2250 321° Northwest 400 460 34,000  Level FlightAware
10:16AM 58.6670 32.1480 321° Northwest 403 464 34,000  Level FlightAware
10:17AM 58.7240 32.0600 321° Northwest 404 465 34,000  Level FlightAware
10:18AM 58.7620 32.0000 321° Northwest 404 465 34,000  Level FlightAware
10:18AM 58.8440 31.8690 320° Northwest 402 463 34,000  Level FlightAware
10:19AM 58.8980 31.7830 321° Northwest 402 463 34,000  Level FlightAware
10:20AM 58.9570 31.6890 321° Northwest 405 466 34,000  Level FlightAware
10:20AM 58.9890 31.6370 320° Northwest 406 467 34,000  Level FlightAware
10:21AM 59.1010 31.4530 320° Northwest 396 456 34,000  Level FlightAware
10:22AM 59.1380 31.3140 297° West 373 429 34,000  Level FlightAware
10:23AM 59.1670 31.1990 296° West 387 445 34,000  Level FlightAware
10:23AM 59.2230 31.1180 324° Northwest 420 483 34,000  Level FlightAware
10:24AM 59.2890 31.0380 328° Northwest 417 480 34,000  Level FlightAware
10:25AM 59.3680 30.9190 323° Northwest 415 478 34,000  Level FlightAware
10:26AM 59.4180 30.8410 322° Northwest 420 483 34,000  Level FlightAware
10:26AM 59.4720 30.7560 321° Northwest 421 484 34,000  Level FlightAware
10:27AM 59.5160 30.6550 311° West 395 455 34,000  Level FlightAware
10:27AM 59.5320 30.5470 286° West 379 436 34,000  Level FlightAware
10:28AM 59.5390 30.4050 276° West 380 437 34,000  Level FlightAware
10:29AM 59.5450 30.2940 276° West 379 436 34,000  Level FlightAware
10:29AM 59.5530 30.1460 276° West 377 434 34,000  Level FlightAware
10:30AM 59.5590 30.0070 275° West 377 434 34,000  Level FlightAware
10:31AM 59.5660 29.8650 276° West 380 437 34,000  Level FlightAware
10:31AM 59.5740 29.7030 276° West 382 440 34,000  Level FlightAware
10:32AM 59.5800 29.5650 275° West 386 444 34,000  Level FlightAware
10:33AM 59.5850 29.4540 275° West 388 447 34,000 60 Level FlightAware
10:33AM 59.5900 29.3470 275° West 386 444 34,100 480 Climbing FlightAware
10:34AM 59.5960 29.2030 275° West 378 435 34,600 720 Climbing FlightAware
10:35AM 59.6020 29.0420 274° West 373 429 35,200 660 Climbing FlightAware
10:35AM 59.6070 28.9330 275° West 374 430 35,500 540 Climbing FlightAware
10:36AM 59.6130 28.7920 275° West 378 435 35,900 300 Climbing FlightAware
10:37AM 59.6310 28.6460 284° West 390 449 36,000 60 Climbing FlightAware
10:37AM 59.6510 28.5130 287° West 400 460 36,000  Level FlightAware
10:38AM 59.6740 28.3550 286° West 406 467 36,000  Level FlightAware
10:39AM 59.6960 28.2040 286° West 406 467 36,000  Level FlightAware
10:39AM 59.7180 28.0480 286° West 404 465 36,000  Level FlightAware
10:40AM 59.7380 27.9070 286° West 404 465 36,000  Level FlightAware
10:41AM 59.7580 27.7620 285° West 405 466 36,000  Level FlightAware
10:42AM 59.7890 27.5370 285° West 406 467 36,000  Level FlightAware
10:42AM 59.8080 27.3950 285° West 407 468 36,000  Level FlightAware
10:43AM 59.8260 27.2640 285° West 408 470 36,000  Level FlightAware
10:44AM 59.8460 27.1150 285° West 408 470 36,000  Level FlightAware
10:44AM 59.8670 26.9570 285° West 409 471 36,000  Level FlightAware
10:45AM 59.8840 26.8250 284° West 410 472 36,000  Level FlightAware
10:46AM 59.9010 26.7000 285° West 409 471 36,000  Level FlightAware
10:47AM 59.9310 26.4580 284° West 411 473 36,000  Level FlightAware
10:47AM 59.9470 26.3500 287° West 413 475 36,000  Level FlightAware
10:48AM 59.9790 26.2060 294° West 418 481 36,000  Level FlightAware
10:49AM 60.0160 26.0850 301° West 421 484 36,000  Level FlightAware
10:49AM 60.0720 25.9700 314° West 436 502 36,000  Level FlightAware
10:50AM 60.1480 25.8760 328° Northwest 439 505 36,000  Level FlightAware
10:50AM 60.2040 25.8070 329° Northwest 440 506 36,000  Level FlightAware
10:51AM 60.2580 25.7380 328° Northwest 442 509 36,000  Level FlightAware
10:52AM 60.3310 25.6470 328° Northwest 445 512 36,000  Level FlightAware
10:52AM 60.4160 25.5390 328° Northwest 446 513 36,000  Level FlightAware
10:53AM 60.5000 25.4310 328° Northwest 445 512 36,000  Level FlightAware
10:54AM 60.5660 25.3470 328° Northwest 445 512 36,000  Level FlightAware
10:55AM 60.6500 25.2380 328° Northwest 445 512 36,000  Level FlightAware
10:55AM 60.7170 25.1510 328° Northwest 445 512 36,000  Level FlightAware
10:56AM 60.7960 25.0490 328° Northwest 443 510 36,000  Level FlightAware
10:57AM 60.8520 24.9750 327° Northwest 443 510 36,000  Level FlightAware
10:57AM 60.9190 24.8860 327° Northwest 443 510 36,000  Level FlightAware
10:58AM 60.9850 24.7990 327° Northwest 443 510 36,000  Level FlightAware
10:58AM 61.0350 24.7320 327° Northwest 444 511 36,000  Level FlightAware
10:59AM 61.1020 24.6430 327° Northwest 446 513 36,000  Level FlightAware
11:00AM 61.1820 24.5360 327° Northwest 448 516 36,000  Level FlightAware
11:01AM 61.2600 24.4310 327° Northwest 449 517 36,000  Level FlightAware
11:01AM 61.3240 24.3430 327° Northwest 447 514 36,000  Level FlightAware
11:02AM 61.4040 24.2330 327° Northwest 446 513 36,000  Level FlightAware
11:03AM 61.4660 24.1490 327° Northwest 446 513 36,000  Level FlightAware
11:03AM 61.5370 24.0500 326° Northwest 447 514 36,000  Level FlightAware
11:04AM 61.6180 23.9370 326° Northwest 447 514 36,000  Level FlightAware
11:05AM 61.6840 23.8450 327° Northwest 447 514 36,000  Level FlightAware
11:05AM 61.7380 23.7700 327° Northwest 446 513 36,000  Level FlightAware
11:06AM 61.8150 23.6610 326° Northwest 443 510 36,000  Level FlightAware
11:07AM 61.8710 23.5700 323° Northwest 440 506 36,000  Level FlightAware
11:07AM 61.9270 23.4690 320° Northwest 439 505 36,000  Level FlightAware
11:08AM 61.9930 23.3510 320° Northwest 439 505 36,000  Level FlightAware
11:09AM 62.0650 23.2240 320° Northwest 440 506 36,000  Level FlightAware
11:09AM 62.1150 23.1340 320° Northwest 442 509 36,000  Level FlightAware
11:11AM 62.2360 22.9180 320° Northwest 442 509 36,000  Level FlightAware
11:11AM 62.2840 22.8320 320° Northwest 441 507 36,000  Level FlightAware
11:12AM 62.3570 22.6990 320° Northwest 440 506 36,000  Level FlightAware
11:13AM 62.4240 22.5780 320° Northwest 439 505 36,000  Level FlightAware
11:14AM 62.5340 22.3750 320° Northwest 439 505 36,000  Level FlightAware
11:15AM 62.6090 22.2360 320° Northwest 441 507 36,000  Level FlightAware
11:15AM 62.6710 22.1200 319° Northwest 442 509 36,000  Level FlightAware
11:16AM 62.7510 21.9700 319° Northwest 442 509 36,000  Level FlightAware
11:17AM 62.8220 21.8360 319° Northwest 440 506 36,000  Level FlightAware
11:18AM 62.8910 21.7050 319° Northwest 440 506 36,000  Level FlightAware
11:18AM 62.9610 21.5720 319° Northwest 441 507 36,000  Level FlightAware
11:19AM 63.0210 21.4550 319° Northwest 440 506 36,000  Level FlightAware
11:20AM 63.0970 21.3070 319° Northwest 439 505 36,000  Level FlightAware
11:20AM 63.1420 21.2200 319° Northwest 439 505 36,000  Level FlightAware
11:21AM 63.2050 21.0980 319° Northwest 440 506 36,000  Level FlightAware
11:22AM 63.2570 20.9930 318° Northwest 441 507 36,000  Level FlightAware
11:22AM 63.3190 20.8720 319° Northwest 442 509 36,000  Level FlightAware
11:23AM 63.3850 20.7390 318° Northwest 442 509 36,000  Level FlightAware
11:24AM 63.4390 20.6310 318° Northwest 441 507 36,000  Level FlightAware
11:24AM 63.4920 20.5250 318° Northwest 441 507 36,000  Level FlightAware
11:25AM 63.5450 20.4160 318° Northwest 440 506 36,000  Level FlightAware
11:26AM 63.6270 20.2490 318° Northwest 439 505 36,000  Level FlightAware
11:26AM 63.6700 20.1610 318° Northwest 438 504 36,000  Level FlightAware
11:27AM 63.7250 20.0480 318° Northwest 438 504 36,000  Level FlightAware
11:27AM 63.7750 19.9430 317° Northwest 438 504 36,000  Level FlightAware
11:28AM 63.8350 19.8190 318° Northwest 438 504 36,000  Level FlightAware
11:29AM 63.8870 19.7100 317° Northwest 438 504 36,000  Level FlightAware
11:29AM 63.9300 19.6190 317° Northwest 438 504 36,000  Level FlightAware
11:30AM 64.0280 19.4110 317° Northwest 439 505 36,000  Level FlightAware
11:31AM 64.0980 19.2610 317° Northwest 440 506 36,000  Level FlightAware
11:32AM 64.1540 19.1400 317° Northwest 441 507 36,000  Level FlightAware
11:32AM 64.2020 19.0350 316° Northwest 441 507 36,000  Level FlightAware
11:33AM 64.2800 18.8650 317° Northwest 439 505 36,000  Level FlightAware
11:34AM 64.3310 18.7530 316° Northwest 438 504 36,000  Level FlightAware
11:34AM 64.3890 18.6240 316° Northwest 439 505 36,000  Level FlightAware
11:35AM 64.4540 18.4800 316° Northwest 441 507 36,000  Level FlightAware
11:36AM 64.5070 18.3610 316° Northwest 442 509 36,000  Level FlightAware
11:36AM 64.5620 18.2380 316° Northwest 444 511 36,000  Level FlightAware
11:37AM 64.6130 18.1220 316° Northwest 445 512 36,000  Level FlightAware
11:37AM 64.6700 17.9930 316° Northwest 444 511 36,000  Level FlightAware
11:38AM 64.7270 17.8630 316° Northwest 442 509 36,000  Level FlightAware
11:39AM 64.7880 17.7200 315° West 442 509 36,000  Level FlightAware
11:39AM 64.8370 17.6070 316° Northwest 443 510 36,000  Level FlightAware
11:40AM 64.9350 17.3790 315° West 442 509 36,000  Level FlightAware
11:41AM 64.9940 17.2390 315° West 440 506 36,000  Level FlightAware
11:42AM 65.0420 17.1250 315° West 440 506 36,000  Level FlightAware
11:42AM 65.0990 16.9870 314° West 441 507 36,000  Level FlightAware
11:43AM 65.1540 16.8560 315° West 441 507 36,000  Level FlightAware
11:44AM 65.2100 16.7200 315° West 442 509 36,000  Level FlightAware
11:45AM 65.2850 16.5380 315° West 441 507 36,000  Level FlightAware
11:45AM 65.3420 16.3970 314° West 442 509 36,000  Level FlightAware
11:46AM 65.4070 16.2370 314° West 442 509 36,000  Level FlightAware
11:47AM 65.4590 16.1080 314° West 442 509 36,000  Level FlightAware
11:47AM 65.5150 15.9670 314° West 442 509 36,000  Level FlightAware
11:48AM 65.5720 15.8220 314° West 442 509 36,000  Level FlightAware
11:49AM 65.6390 15.6520 314° West 442 509 36,000  Level FlightAware
11:49AM 65.6920 15.5160 313° West 441 507 36,000  Level FlightAware
11:50AM 65.7420 15.3880 314° West 440 506 36,000  Level FlightAware
11:50AM 65.7780 15.2950 313° West 440 506 36,000  Level FlightAware
11:51AM 65.8310 15.1580 313° West 439 505 36,000  Level FlightAware
11:52AM 65.8810 15.0260 313° West 439 505 36,000  Level FlightAware
11:52AM 65.9340 14.8850 313° West 440 506 36,000  Level FlightAware
11:53AM 65.9920 14.7320 313° West 440 506 36,000  Level FlightAware
11:54AM 66.0530 14.5670 312° West 442 509 36,000  Level FlightAware
11:54AM 66.1170 14.3960 313° West 443 510 36,000  Level FlightAware
11:55AM 66.1610 14.2750 312° West 441 507 36,000  Level FlightAware
11:56AM 66.2130 14.1360 313° West 439 505 36,000  Level FlightAware
11:56AM 66.2650 13.9920 312° West 439 505 36,000  Level FlightAware
11:57AM 66.3220 13.8330 312° West 439 505 36,000  Level FlightAware
11:58AM 66.3810 13.6700 312° West 437 503 36,000  Level FlightAware
11:58AM 66.4280 13.5360 311° West 436 502 36,000  Level FlightAware
11:59AM 66.4640 13.4360 312° West 436 502 36,000  Level FlightAware
11:59AM 66.5150 13.2890 311° West 435 501 36,000  Level FlightAware
12:00PM 66.5540 13.1780 311° West 429 494 36,000  Level FlightAware
12:00PM 66.6010 13.0440 311° West 427 491 36,000  Level FlightAware
12:01PM 66.6410 12.9280 311° West 426 490 36,000  Level FlightAware
12:02PM 66.7320 12.6620 311° West 425 489 36,000  Level FlightAware
12:03PM 66.7810 12.5170 311° West 424 488 36,000  Level FlightAware
12:03PM 66.8260 12.3830 311° West 423 487 36,000  Level FlightAware
12:04PM 66.8710 12.2500 311° West 429 494 36,000  Level FlightAware
12:05PM 66.9150 12.1190 311° West 428 493 36,000  Level FlightAware
12:05PM 66.9580 11.9890 310° West 427 491 36,000  Level FlightAware
12:06PM 67.0010 11.8580 310° West 427 491 36,000  Level FlightAware
12:06PM 67.0570 11.6860 310° West 427 491 36,000  Level FlightAware
12:07PM 67.1030 11.5420 309° West 427 491 36,000  Level FlightAware
12:08PM 67.1410 11.4210 309° West 427 491 36,000  Level FlightAware
12:08PM 67.1860 11.2890 311° West 426 490 36,000  Level FlightAware
12:09PM 67.2380 11.1210 309° West 426 490 36,000  Level FlightAware
12:10PM 67.2890 10.9590 309° West 426 490 36,000  Level FlightAware
12:10PM 67.3280 10.8340 309° West 426 490 36,000  Level FlightAware
12:11PM 67.3690 10.7020 309° West 426 490 36,000  Level FlightAware
12:12PM 67.4190 10.5390 309° West 426 490 36,000  Level FlightAware
12:12PM 67.4580 10.4140 309° West 426 490 36,000  Level FlightAware
12:13PM 67.4970 10.2880 309° West 426 490 36,000  Level FlightAware
12:14PM 67.5480 10.1250 309° West 426 490 36,000  Level FlightAware
12:14PM 67.5860 10.0020 309° West 426 490 36,000  Level FlightAware
12:15PM 67.6240 9.8790 309° West 426 490 36,000  Level FlightAware
12:16PM 67.6640 9.7480 309° West 426 490 36,000  Level FlightAware
12:16PM 67.7030 9.6220 309° West 426 490 36,000  Level FlightAware
12:17PM 67.7280 9.5390 308° West 426 490 36,000  Level FlightAware
12:17PM 67.7670 9.4120 309° West 426 490 36,000  Level FlightAware
12:18PM 67.8160 9.2530 309° West 426 490 36,000  Level FlightAware
12:21PM 67.8674 8.4999 281° West  Level Estimated
12:22PM 67.8877 8.1851 280° West  Level Estimated
12:23PM 67.9075 7.8698 280° West  Level Estimated
12:24PM 67.9267 7.5540 279° West  Level Estimated
12:25PM 67.9453 7.2376 279° West  Level Estimated
12:26PM 67.9632 6.9208 279° West  Level Estimated
12:27PM 67.9806 6.6034 278° West  Level Estimated
12:28PM 67.9973 6.2856 278° West  Level Estimated
12:29PM 68.0134 5.9674 278° West  Level Estimated
12:30PM 68.0289 5.6487 278° West  Level Estimated
12:31PM 68.0438 5.3296 277° West  Level Estimated
12:32PM 68.0581 5.0101 277° West  Level Estimated
12:33PM 68.0717 4.6902 277° West  Level Estimated
12:34PM 68.0847 4.3700 276° West  Level Estimated
12:35PM 68.0972 4.0493 276° West  Level Estimated
12:36PM 68.1089 3.7284 276° West  Level Estimated
12:37PM 68.1201 3.4071 275° West  Level Estimated
12:38PM 68.1307 3.0855 275° West  Level Estimated
12:39PM 68.1406 2.7637 275° West  Level Estimated
12:40PM 68.1499 2.4416 275° West  Level Estimated
12:41PM 68.1585 2.1192 274° West  Level Estimated
12:42PM 68.1666 1.7966 274° West  Level Estimated
12:43PM 68.1740 1.4737 274° West  Level Estimated
12:44PM 68.1808 1.1507 273° West  Level Estimated
12:45PM 68.1870 0.8274 273° West  Level Estimated
12:46PM 68.1925 0.5041 273° West  Level Estimated
12:47PM 68.1974 0.1805 272° West  Level Estimated
12:48PM 68.2017 -0.1431 272° West  Level Estimated
12:49PM 68.2053 -0.4669 272° West  Level Estimated
12:50PM 68.2083 -0.7908 272° West  Level Estimated
12:51PM 68.2107 -1.1147 271° West  Level Estimated
12:52PM 68.2124 -1.4387 271° West  Level Estimated
12:53PM 68.2135 -1.7627 271° West  Level Estimated
12:54PM 68.2140 -2.0868 270° West  Level Estimated
12:55PM 68.2139 -2.4109 270° West  Level Estimated
12:56PM 68.2131 -2.7349 270° West  Level Estimated
12:57PM 68.2117 -3.0589 269° West  Level Estimated
12:58PM 68.2096 -3.3829 269° West  Level Estimated
12:59PM 68.2070 -3.7068 269° West  Level Estimated
01:00PM 68.2037 -4.0306 269° West  Level Estimated
01:01PM 68.1997 -4.3544 268° West  Level Estimated
01:02PM 68.1951 -4.6779 268° West  Level Estimated
01:03PM 68.1899 -5.0014 268° West  Level Estimated
01:04PM 68.1841 -5.3247 267° West  Level Estimated
01:05PM 68.1777 -5.6479 267° West  Level Estimated
01:06PM 68.1706 -5.9708 267° West  Level Estimated
01:07PM 68.1628 -6.2935 266° West  Level Estimated
01:08PM 68.1545 -6.6160 266° West  Level Estimated
01:09PM 68.1455 -6.9383 266° West  Level Estimated
01:10PM 68.1359 -7.2603 266° West  Level Estimated
01:11PM 68.1257 -7.5820 265° West  Level Estimated
01:12PM 68.1149 -7.9035 265° West  Level Estimated
01:13PM 68.1034 -8.2246 265° West  Level Estimated
01:14PM 68.0913 -8.5454 264° West  Level Estimated
01:15PM 68.0786 -8.8658 264° West  Level Estimated
01:16PM 68.0653 -9.1859 264° West  Level Estimated
01:17PM 68.0513 -9.5056 263° West  Level Estimated
01:18PM 68.0368 -9.8249 263° West  Level Estimated
01:19PM 68.0216 -10.1438 263° West  Level Estimated
01:20PM 68.0058 -10.4623 263° West  Level Estimated
01:21PM 67.9894 -10.7803 262° West  Level Estimated
01:22PM 67.9724 -11.0979 262° West  Level Estimated
01:23PM 67.9547 -11.4150 262° West  Level Estimated
01:24PM 67.9365 -11.7316 261° West  Level Estimated
01:25PM 67.9176 -12.0478 261° West  Level Estimated
01:26PM 67.8982 -12.3633 261° West  Level Estimated
01:27PM 67.8781 -12.6784 261° West  Level Estimated
01:28PM 67.8575 -12.9929 260° West  Level Estimated
01:29PM 67.8362 -13.3068 260° West  Level Estimated
01:30PM 67.8143 -13.6202 260° West  Level Estimated
01:31PM 67.7918 -13.9329 259° West  Level Estimated
01:32PM 67.7688 -14.2451 259° West  Level Estimated
01:33PM 67.7451 -14.5566 259° West  Level Estimated
01:34PM 67.7209 -14.8675 259° West  Level Estimated
01:35PM 67.6960 -15.1777 258° West  Level Estimated
01:36PM 67.6706 -15.4873 258° West  Level Estimated
01:37PM 67.6446 -15.7962 258° West  Level Estimated
01:38PM 67.6180 -16.1045 257° West  Level Estimated
01:39PM 67.5908 -16.4120 257° West  Level Estimated
01:40PM 67.5630 -16.7188 257° West  Level Estimated
01:41PM 67.5347 -17.0248 257° West  Level Estimated
01:42PM 67.5058 -17.3302 256° West  Level Estimated
01:43PM 67.4763 -17.6348 256° West  Level Estimated
01:44PM 67.4462 -17.9386 256° West  Level Estimated
01:45PM 67.4156 -18.2416 255° West  Level Estimated
01:46PM 67.3844 -18.5439 255° West  Level Estimated
01:47PM 67.3526 -18.8454 255° West  Level Estimated
01:48PM 67.3203 -19.1460 255° West  Level Estimated
01:49PM 67.2874 -19.4459 254° West  Level Estimated
01:50PM 67.2540 -19.7449 254° West  Level Estimated
01:51PM 67.2200 -20.0430 254° West  Level Estimated
01:52PM 67.1854 -20.3404 253° West  Level Estimated
01:53PM 67.1504 -20.6368 253° West  Level Estimated
01:54PM 67.1147 -20.9324 253° West  Level Estimated
01:55PM 67.0785 -21.2272 253° West  Level Estimated
01:56PM 67.0418 -21.5210 252° West  Level Estimated
01:57PM 67.0045 -21.8139 252° West  Level Estimated
01:58PM 66.9667 -22.1060 252° West  Level Estimated
01:59PM 66.9284 -22.3971 252° West  Level Estimated
02:00PM 66.8895 -22.6873 251° West  Level Estimated
02:01PM 66.8501 -22.9766 251° West  Level Estimated
02:02PM 66.8101 -23.2649 251° West  Level Estimated
02:03PM 66.7697 -23.5523 250° West  Level Estimated
02:04PM 66.7287 -23.8388 250° West  Level Estimated
02:05PM 66.6872 -24.1243 250° West  Level Estimated
02:06PM 66.6452 -24.4088 250° West  Level Estimated
02:07PM 66.6027 -24.6924 249° West  Level Estimated
02:08PM 66.5597 -24.9750 249° West  Level Estimated
02:09PM 66.5161 -25.2566 249° West  Level Estimated
02:10PM 66.4721 -25.5372 249° West  Level Estimated
02:11PM 66.4275 -25.8168 248° West  Level Estimated
02:12PM 66.3825 -26.0954 248° West  Level Estimated
02:13PM 66.3370 -26.3730 248° West  Level Estimated
02:14PM 66.2909 -26.6496 248° West  Level Estimated
02:15PM 66.2444 -26.9252 247° West  Level Estimated
02:16PM 66.1974 -27.1998 247° West  Level Estimated
02:17PM 66.1499 -27.4733 247° West  Level Estimated
02:18PM 66.1019 -27.7458 247° West  Level Estimated
02:19PM 66.0535 -28.0173 246° West  Level Estimated
02:20PM 66.0046 -28.2878 246° West  Level Estimated
02:21PM 65.9552 -28.5572 246° West  Level Estimated
02:22PM 65.9053 -28.8255 246° West  Level Estimated
02:23PM 65.8550 -29.0928 245° Southwest  Level Estimated
02:24PM 65.8042 -29.3591 245° Southwest  Level Estimated
02:25PM 65.7529 -29.6243 245° Southwest  Level Estimated
02:26PM 65.7012 -29.8885 245° Southwest  Level Estimated
02:27PM 65.6490 -30.1516 244° Southwest  Level Estimated
02:28PM 65.5964 -30.4136 244° Southwest  Level Estimated
02:29PM 65.5433 -30.6745 244° Southwest  Level Estimated
02:30PM 65.4898 -30.9345 244° Southwest  Level Estimated
02:31PM 65.4358 -31.1933 243° Southwest  Level Estimated
02:32PM 65.3814 -31.4511 243° Southwest  Level Estimated
02:33PM 65.3266 -31.7078 243° Southwest  Level Estimated
02:34PM 65.2713 -31.9634 243° Southwest  Level Estimated
02:35PM 65.2156 -32.2179 243° Southwest  Level Estimated
02:36PM 65.1595 -32.4714 242° Southwest  Level Estimated
02:37PM 65.1029 -32.7238 242° Southwest  Level Estimated
02:38PM 65.0460 -32.9752 242° Southwest  Level Estimated
02:39PM 64.9885 -33.2254 242° Southwest  Level Estimated
02:40PM 64.9307 -33.4746 241° Southwest  Level Estimated
02:41PM 64.8725 -33.7227 241° Southwest  Level Estimated
02:42PM 64.8139 -33.9697 241° Southwest  Level Estimated
02:43PM 64.7548 -34.2156 241° Southwest  Level Estimated
02:44PM 64.6954 -34.4605 240° Southwest  Level Estimated
02:45PM 64.6355 -34.7043 240° Southwest  Level Estimated
02:46PM 64.5752 -34.9470 240° Southwest  Level Estimated
02:47PM 64.5146 -35.1887 240° Southwest  Level Estimated
02:48PM 64.4535 -35.4292 240° Southwest  Level Estimated
02:49PM 64.3921 -35.6687 239° Southwest  Level Estimated
02:50PM 64.3303 -35.9072 239° Southwest  Level Estimated
02:51PM 64.2680 -36.1445 239° Southwest  Level Estimated
02:52PM 64.2054 -36.3808 239° Southwest  Level Estimated
02:53PM 64.1424 -36.6160 239° Southwest  Level Estimated
02:54PM 64.0791 -36.8501 238° Southwest  Level Estimated
02:55PM 64.0154 -37.0832 238° Southwest  Level Estimated
02:56PM 63.9513 -37.3152 238° Southwest  Level Estimated
02:57PM 63.8868 -37.5462 238° Southwest  Level Estimated
02:58PM 63.8219 -37.7761 237° Southwest  Level Estimated
02:59PM 63.7567 -38.0049 237° Southwest  Level Estimated
03:00PM 63.6912 -38.2327 237° Southwest  Level Estimated
03:01PM 63.6253 -38.4594 237° Southwest  Level Estimated
03:02PM 63.5590 -38.6851 237° Southwest  Level Estimated
03:03PM 63.4924 -38.9097 236° Southwest  Level Estimated
03:03PM 67.4210 -44.5440 236° Southwest 450 518 36,000  Level FlightAware
03:03PM 67.3680 -44.6820 225° Southwest 449 517 36,000  Level FlightAware
03:04PM 63.4254 -39.1332 236° Southwest  Level Estimated
03:04PM 67.2880 -44.8870 225° Southwest 446 513 36,000  Level FlightAware
03:05PM 67.2010 -45.1060 224° Southwest 443 510 36,000  Level FlightAware
03:06PM 67.1430 -45.2520 224° Southwest 441 507 36,000  Level FlightAware
03:07PM 67.0800 -45.4080 224° Southwest 439 505 36,000  Level FlightAware
03:07PM 67.0340 -45.5210 224° Southwest 437 503 36,000  Level FlightAware
03:08PM 66.9870 -45.6370 224° Southwest 434 499 36,000  Level FlightAware
03:09PM 66.9070 -45.8330 224° Southwest 430 495 36,000  Level FlightAware
03:09PM 66.8750 -45.9100 223° Southwest 428 493 36,000  Level FlightAware
03:10PM 66.8190 -46.0450 224° Southwest 427 491 36,000  Level FlightAware
03:11PM 66.7410 -46.2310 223° Southwest 425 489 36,000  Level FlightAware
03:12PM 66.6580 -46.4280 223° Southwest 426 490 36,000  Level FlightAware
03:12PM 66.5920 -46.5830 223° Southwest 424 488 36,000  Level FlightAware
03:13PM 66.5030 -46.7910 223° Southwest 423 487 36,000  Level FlightAware
03:14PM 66.4290 -46.9570 222° Southwest 423 487 36,000  Level FlightAware
03:15PM 66.3700 -47.0910 222° Southwest 423 487 36,000  Level FlightAware
03:16PM 66.3100 -47.2240 222° Southwest 423 487 36,000  Level FlightAware
03:17PM 66.2660 -47.3240 222° Southwest 423 487 36,000  Level FlightAware
03:18PM 66.1920 -47.4890 222° Southwest 423 487 36,000  Level FlightAware
03:18PM 66.1460 -47.5910 222° Southwest 423 487 36,000  Level FlightAware
03:19PM 66.0720 -47.7560 222° Southwest 423 487 36,000  Level FlightAware
03:20PM 66.0270 -47.8550 222° Southwest 423 487 36,000  Level FlightAware
03:20PM 65.9820 -47.9560 222° Southwest 423 487 36,000  Level FlightAware
03:21PM 65.9520 -48.0210 221° Southwest 423 487 36,000  Level FlightAware
03:22PM 65.8780 -48.1850 222° Southwest 423 487 36,000  Level FlightAware
03:22PM 65.8330 -48.2830 222° Southwest 423 487 36,000  Level FlightAware
03:23PM 65.7890 -48.3810 222° Southwest 423 487 36,000  Level FlightAware
03:23PM 65.7590 -48.4460 222° Southwest 423 487 36,000  Level FlightAware
03:27PM 65.4873 -49.0716 224° Southwest  Level Estimated
03:28PM 65.3995 -49.2696 223° Southwest  Level Estimated
03:29PM 65.3115 -49.4663 223° Southwest  Level Estimated
03:30PM 65.2233 -49.6616 223° Southwest  Level Estimated
03:31PM 65.1348 -49.8557 223° Southwest  Level Estimated
03:32PM 65.0461 -50.0484 223° Southwest  Level Estimated
03:33PM 64.9571 -50.2399 222° Southwest  Level Estimated
03:34PM 64.8679 -50.4301 222° Southwest  Level Estimated
03:35PM 64.7784 -50.6190 222° Southwest  Level Estimated
03:35PM 64.7290 -51.1120 222° Southwest 426 490 36,000  Level FlightAware
03:36PM 64.6887 -50.8067 222° Southwest  Level Estimated
03:36PM 64.6950 -51.2470 240° Southwest 427 491 36,000  Level FlightAware
03:36PM 64.6580 -51.3950 240° Southwest 428 493 36,000  Level FlightAware
03:37PM 64.6220 -51.5360 239° Southwest 429 494 36,000  Level FlightAware
03:37PM 64.5880 -51.6710 240° Southwest 428 493 36,000  Level FlightAware
03:38PM 64.5470 -51.8290 239° Southwest 428 493 36,000  Level FlightAware
03:39PM 64.5160 -51.9480 239° Southwest 429 494 36,000  Level FlightAware
03:40PM 64.4550 -52.1830 239° Southwest 427 491 36,000  Level FlightAware
03:40PM 64.4180 -52.3240 239° Southwest 426 490 36,000  Level FlightAware
03:41PM 64.3770 -52.4770 238° Southwest 427 491 36,000  Level FlightAware
03:41PM 64.3440 -52.5990 238° Southwest 427 491 36,000  Level FlightAware
03:42PM 64.3110 -52.7220 238° Southwest 427 491 36,000  Level FlightAware
03:42PM 64.2790 -52.8420 238° Southwest 426 490 36,000  Level FlightAware
03:43PM 64.2400 -52.9850 238° Southwest 426 490 36,000  Level FlightAware
03:44PM 64.1830 -53.1900 238° Southwest 425 489 36,000  Level FlightAware
03:45PM 64.1330 -53.3760 238° Southwest 423 487 36,000  Level FlightAware
03:46PM 64.0730 -53.5910 238° Southwest 422 486 36,000  Level FlightAware
03:46PM 64.0390 -53.7120 237° Southwest 422 486 36,000  Level FlightAware
03:47PM 64.0060 -53.8260 237° Southwest 422 486 36,000  Level FlightAware
03:48PM 63.9730 -53.9410 237° Southwest 422 486 36,000  Level FlightAware
03:48PM 63.9410 -54.0550 237° Southwest 422 486 36,000  Level FlightAware
03:49PM 63.9080 -54.1690 237° Southwest 422 486 36,000  Level FlightAware
03:49PM 63.8870 -54.2450 238° Southwest 422 486 36,000  Level FlightAware
03:50PM 63.8510 -54.3680 236° Southwest 422 486 36,000  Level FlightAware
03:50PM 63.8180 -54.4840 237° Southwest 422 486 36,000  Level FlightAware
03:51PM 63.7650 -54.6670 237° Southwest 422 486 36,000  Level FlightAware
03:52PM 63.7320 -54.7840 238° Southwest 422 486 36,000  Level FlightAware
03:53PM 63.7010 -54.8900 237° Southwest 422 486 36,000  Level FlightAware
03:53PM 63.6580 -55.0410 237° Southwest 422 486 36,000  Level FlightAware
03:54PM 63.6250 -55.1540 237° Southwest 422 486 36,000  Level FlightAware
03:55PM 63.5920 -55.2700 237° Southwest 422 486 36,000  Level FlightAware
03:55PM 63.5580 -55.3850 236° Southwest 422 486 36,000  Level FlightAware
03:56PM 63.5370 -55.4600 238° Southwest 422 486 36,000  Level FlightAware
03:57PM 63.3667 -56.0000 235° Southwest 430 495 36,000  Level Gander Center
03:58PM 63.3000 -56.2000 233° Southwest 420 483 36,000  Level Gander Center
03:59PM 63.3736 -55.9358 236° Southwest  Level FlightAware Approximate
03:59PM 63.2333 -56.4333 238° Southwest 440 506 36,000  Level Gander Center
04:00PM 63.3208 -56.1059 235° Southwest  Level FlightAware Approximate
04:00PM 63.1667 -56.6167 231° Southwest 430 495 36,000  Level Gander Center
04:01PM 63.2677 -56.2753 235° Southwest  Level FlightAware Approximate
04:01PM 63.1000 -56.8500 238° Southwest 430 495 36,000  Level Gander Center
04:02PM 63.2144 -56.4442 235° Southwest  Level FlightAware Approximate
04:02PM 63.0333 -57.0500 234° Southwest 430 495 36,000  Level Gander Center
04:03PM 62.9667 -57.2667 236° Southwest 440 506 36,000  Level Gander Center
04:04PM 62.8833 -57.4667 228° Southwest 450 518 36,000  Level Gander Center
04:05PM 62.8167 -57.7333 241° Southwest 440 506 36,000  Level Gander Center
04:07PM 62.7198 -58.0142 233° Southwest  Level FlightAware Approximate
04:13PM 62.2667 -59.2667 231° Southwest 370 426 36,000  Level Montreal Center
04:14PM 62.3232 -59.1297 233° Southwest  Level FlightAware Approximate
04:14PM 62.1833 -59.4333 223° Southwest 420 483 36,000  Level Montreal Center
04:15PM 62.2659 -59.2866 232° Southwest  Level FlightAware Approximate
04:15PM 62.1000 -59.6167 226° Southwest 430 495 36,000  Level Montreal Center
04:16PM 62.2083 -59.4430 232° Southwest  Level FlightAware Approximate
04:16PM 62.0333 -59.8333 237° Southwest 440 506 36,000  Level Montreal Center
04:17PM 62.1506 -59.5987 232° Southwest  Level FlightAware Approximate
04:17PM 61.9500 -60.0333 229° Southwest 440 506 36,000  Level Montreal Center
04:18PM 62.0927 -59.7539 231° Southwest  Level FlightAware Approximate
04:18PM 61.8667 -60.2167 226° Southwest 440 506 36,000  Level Montreal Center
04:19PM 61.7667 -60.3667 215° Southwest 440 506 36,000  Level Montreal Center
04:20PM 61.6833 -60.5333 224° Southwest 430 495 36,000  Level Montreal Center
04:21PM 61.5833 -60.7167 221° Southwest 450 518 36,000  Level Montreal Center
04:22PM 61.4833 -60.8667 216° Southwest 450 518 36,000  Level Montreal Center
04:23PM 61.3833 -61.0167 216° Southwest 440 506 36,000  Level Montreal Center
04:24PM 61.3000 -61.2000 227° Southwest 440 506 36,000  Level Montreal Center
04:25PM 61.2000 -61.3833 221° Southwest 450 518 36,000  Level Montreal Center
04:26PM 61.1167 -61.5333 221° Southwest 440 506 36,000  Level Montreal Center
04:27PM 61.0167 -61.7167 222° Southwest 440 506 36,000  Level Montreal Center
04:28PM 60.9167 -61.9000 222° Southwest 450 518 36,000  Level Montreal Center
04:29PM 60.8333 -62.0500 221° Southwest 450 518 36,000  Level Montreal Center
04:31PM 60.7024 -62.2957 223° Southwest  Level FlightAware Approximate
04:38PM 60.4068 -63.4164 250° West  Level FlightAware Approximate
04:39PM 60.3741 -63.5919 249° West  Level FlightAware Approximate
04:40PM 60.3411 -63.7669 249° West  Level FlightAware Approximate
04:41PM 60.3079 -63.9416 249° West  Level FlightAware Approximate
04:41PM 60.1667 -64.7167 248° West 450 518 36,000  Level Montreal Center
04:42PM 60.2744 -64.1160 249° West  Level FlightAware Approximate
04:42PM 60.1167 -64.9333 245° Southwest 450 518 36,000  Level Montreal Center
04:43PM 60.2408 -64.2900 249° West  Level FlightAware Approximate
04:43PM 60.0500 -65.1333 236° Southwest 450 518 36,000  Level Montreal Center
04:44PM 60.2069 -64.4636 249° West  Level FlightAware Approximate
04:44PM 59.9667 -65.3333 230° Southwest 440 506 36,000  Level Montreal Center
04:45PM 60.1728 -64.6369 248° West  Level FlightAware Approximate
04:45PM 59.8833 -65.4833 222° Southwest 440 506 36,000  Level Montreal Center
04:46PM 60.1385 -64.8098 248° West  Level FlightAware Approximate
04:46PM 59.7833 -65.6500 220° Southwest 440 506 36,000  Level Montreal Center
04:47PM 60.1039 -64.9824 248° West  Level FlightAware Approximate
04:47PM 59.6833 -65.8167 220° Southwest 440 506 36,000  Level Montreal Center
04:48PM 59.6000 -65.9833 225° Southwest 440 506 36,000  Level Montreal Center
04:49PM 59.5000 -66.1333 217° Southwest 440 506 36,000  Level Montreal Center
04:50PM 59.4167 -66.3000 226° Southwest 440 506 36,000  Level Montreal Center
04:51PM 59.3333 -66.4500 223° Southwest 440 506 36,000  Level Montreal Center
04:52PM 59.2167 -66.6167 216° Southwest 440 506 36,000  Level Montreal Center
04:53PM 59.1333 -66.7667 223° Southwest 440 506 36,000  Level Montreal Center
04:54PM 59.0333 -66.9333 221° Southwest 440 506 36,000  Level Montreal Center
04:56PM 58.8167 -67.3333 224° Southwest 450 518 36,000  Level Gander Center
04:57PM 58.7500 -67.4000 207° Southwest 440 506 36,000  Level Montreal Center
04:58PM 58.6500 -67.5500 218° Southwest 450 518 36,000  Level Montreal Center
04:59PM 58.5500 -67.7000 218° Southwest 450 518 36,000  Level Montreal Center
05:00PM 58.4500 -67.8500 218° Southwest 450 518 36,000  Level Montreal Center
05:01PM 58.3667 -68.0000 223° Southwest 450 518 36,000  Level Montreal Center
05:02PM 58.2667 -68.1500 218° Southwest 450 518 36,000  Level Montreal Center
05:03PM 58.2000 -68.3000 230° Southwest 450 518 36,000  Level Montreal Center
05:04PM 58.0833 -68.4167 208° Southwest 450 518 36,000  Level Montreal Center
05:05PM 57.9667 -68.5667 214° Southwest 460 529 36,000  Level Montreal Center
05:06PM 57.8667 -68.7167 219° Southwest 450 518 36,000  Level Montreal Center
05:07PM 57.7667 -68.8500 215° Southwest 450 518 36,000  Level Montreal Center
05:08PM 57.6667 -69.0000 219° Southwest 450 518 36,000  Level Montreal Center
05:09PM 57.5667 -69.1167 212° Southwest 450 518 36,000  Level Montreal Center
05:10PM 57.4500 -69.2667 215° Southwest 450 518 36,000  Level Montreal Center
05:11PM 57.3667 -69.4000 221° Southwest 450 518 36,000  Level Montreal Center
05:12PM 57.2667 -69.5167 212° Southwest 450 518 36,000  Level Montreal Center
05:13PM 57.1500 -69.6667 215° Southwest 450 518 36,000  Level Montreal Center
05:14PM 57.0667 -69.8000 221° Southwest 450 518 36,000  Level Montreal Center
05:15PM 56.9500 -69.9333 212° Southwest 450 518 36,000  Level Montreal Center
05:17PM 56.7667 -70.1833 217° Southwest 450 518 36,000  Level Montreal Center
05:18PM 56.6500 -70.3333 215° Southwest 450 518 36,000  Level Montreal Center
05:19PM 56.5333 -70.4667 212° Southwest 450 518 36,000  Level Montreal Center
05:20PM 56.4333 -70.6000 216° Southwest 450 518 36,000  Level Montreal Center
05:21PM 56.3333 -70.7000 209° Southwest 450 518 36,000  Level Montreal Center
05:22PM 56.2333 -70.8500 220° Southwest 450 518 36,000  Level Montreal Center
05:23PM 56.1167 -70.9833 213° Southwest 450 518 36,000  Level Montreal Center
05:24PM 56.0167 -71.0833 209° Southwest 450 518 36,000  Level Montreal Center
05:25PM 55.9333 -71.2167 222° Southwest 440 506 36,000  Level Montreal Center
05:26PM 55.8167 -71.3500 213° Southwest 450 518 36,000  Level Montreal Center
05:27PM 55.7167 -71.4500 209° Southwest 450 518 36,000  Level Montreal Center
05:28PM 55.6000 -71.5833 213° Southwest 440 506 36,000  Level Montreal Center
05:29PM 55.5000 -71.7167 217° Southwest 450 518 36,000  Level Montreal Center
05:30PM 55.4000 -71.8167 210° Southwest 450 518 36,000  Level Montreal Center
05:31PM 55.3000 -71.9333 214° Southwest 450 518 36,000  Level Montreal Center
05:32PM 55.1833 -72.0667 213° Southwest 450 518 36,000  Level Montreal Center
05:33PM 55.0833 -72.2000 217° Southwest 450 518 36,000  Level Montreal Center
05:34PM 54.9667 -72.3167 210° Southwest 450 518 36,000  Level Montreal Center
05:35PM 54.8667 -72.4167 210° Southwest 450 518 36,000  Level Montreal Center
05:36PM 54.7500 -72.5500 213° Southwest 450 518 36,000  Level Montreal Center
05:37PM 54.6667 -72.6667 219° Southwest 450 518 36,000  Level Montreal Center
05:38PM 54.5667 -72.8000 218° Southwest 450 518 36,000  Level Montreal Center
05:39PM 54.4500 -72.9000 206° Southwest 450 518 36,000  Level Montreal Center
05:40PM 54.3500 -73.0167 214° Southwest 450 518 36,000  Level Montreal Center
05:41PM 54.2333 -73.1333 210° Southwest 450 518 36,000  Level Montreal Center
05:42PM 54.1333 -73.2667 218° Southwest 450 518 36,000  Level Montreal Center
05:43PM 54.0167 -73.3500 203° Southwest 450 518 36,000  Level Montreal Center
05:44PM 53.9000 -73.4833 214° Southwest 450 518 36,000  Level Montreal Center
05:45PM 53.8000 -73.6000 215° Southwest 450 518 36,000  Level Montreal Center
05:46PM 53.6833 -73.7167 211° Southwest 450 518 36,000  Level Montreal Center
05:47PM 53.5667 -73.8167 207° Southwest 450 518 36,000  Level Montreal Center
05:48PM 53.4667 -73.9000 206° Southwest 450 518 36,000  Level Montreal Center
05:49PM 53.3500 -73.9833 203° Southwest 460 529 36,000  Level Montreal Center
05:50PM 53.2333 -74.1000 211° Southwest 460 529 36,000  Level Montreal Center
05:51PM 53.1167 -74.2000 207° Southwest 450 518 36,000  Level Montreal Center
05:52PM 53.0000 -74.2833 203° Southwest 450 518 36,000  Level Montreal Center
05:53PM 52.8833 -74.3667 203° Southwest 450 518 36,000  Level Montreal Center
05:54PM 52.8000 -74.4667 216° Southwest 450 518 36,000  Level Montreal Center
05:55PM 52.6833 -74.5500 203° Southwest 460 529 36,000  Level Montreal Center
05:56PM 52.5500 -74.6667 208° Southwest 460 529 36,000  Level Montreal Center
05:57PM 52.4333 -74.7500 204° Southwest 450 518 36,000  Level Montreal Center
05:58PM 52.3167 -74.8333 204° Southwest 450 518 36,000  Level Montreal Center
05:59PM 52.2000 -74.9167 204° Southwest 450 518 36,000  Level Montreal Center
06:00PM 52.0833 -75.0000 204° Southwest 450 518 36,000  Level Montreal Center
06:01PM 51.9667 -75.1167 212° Southwest 470 541 36,000  Level Montreal Center
06:02PM 51.8667 -75.2000 207° Southwest 460 529 36,000  Level Montreal Center
06:03PM 51.7333 -75.2833 201° Southwest 460 529 36,000  Level Montreal Center
06:04PM 51.6333 -75.3667 207° Southwest 460 529 36,000  Level Montreal Center
06:05PM 51.5167 -75.4500 204° Southwest 460 529 36,000  Level Montreal Center
06:06PM 51.4000 -75.5667 212° Southwest 460 529 36,000  Level Montreal Center
06:08PM 51.2371 -75.6813 204° Southwest  Level FlightAware Approximate
06:12PM 50.7000 -76.0667 205° Southwest 460 529 36,000  Level Montreal Center
06:13PM 50.6000 -76.1500 208° Southwest 460 529 36,000  Level Montreal Center
06:14PM 50.4833 -76.2333 204° Southwest 450 518 36,000  Level Montreal Center
06:15PM 50.6430 -76.1009 205° Southwest  Level FlightAware Approximate
06:15PM 50.3667 -76.3000 200° South 450 518 36,000  Level Montreal Center
06:16PM 50.5586 -76.1620 205° Southwest  Level FlightAware Approximate
06:16PM 50.2500 -76.4167 213° Southwest 450 518 36,000  Level Montreal Center
06:17PM 50.4516 -76.2391 205° Southwest  Level FlightAware Approximate
06:17PM 50.1333 -76.4833 200° South 460 529 36,000  Level Montreal Center
06:18PM 50.0000 -76.5667 202° Southwest 460 529 36,000  Level Montreal Center
06:19PM 49.8833 -76.6500 205° Southwest 450 518 36,000  Level Montreal Center
06:20PM 49.7833 -76.7167 203° Southwest 450 518 36,000  Level Montreal Center
06:21PM 49.6667 -76.8167 209° Southwest 460 529 36,000  Level Montreal Center
06:22PM 49.5500 -76.9000 205° Southwest 450 518 36,000  Level Montreal Center
06:23PM 49.4333 -76.9667 200° South 460 529 36,000  Level Montreal Center
06:24PM 49.3167 -77.0500 205° Southwest 470 541 36,000  Level Montreal Center
06:25PM 49.2000 -77.1167 200° South 440 506 36,000  Level Montreal Center
06:26PM 49.0833 -77.2167 209° Southwest 460 529 36,000  Level Montreal Center
06:27PM 48.9667 -77.3000 205° Southwest 450 518 36,000  Level Montreal Center
06:28PM 48.8500 -77.3667 201° Southwest 450 518 36,000  Level Montreal Center
06:29PM 48.7333 -77.4500 205° Southwest 450 518 36,000  Level Montreal Center
06:34PM 48.0880 -77.8730 205° Southwest 449 517 36,000  Level FlightAware
06:35PM 47.9820 -77.9350 201° Southwest 450 518 36,000  Level FlightAware
06:36PM 47.9160 -77.9730 201° Southwest 451 519 36,000  Level FlightAware
06:37PM 47.8100 -78.0340 201° Southwest 451 519 36,000  Level FlightAware
06:38PM 47.6720 -78.1140 201° Southwest 459 528 36,000  Level FlightAware
06:39PM 47.5770 -78.1690 201° Southwest 459 528 36,000  Level FlightAware
06:40PM 47.4720 -78.2300 201° Southwest 459 528 36,000  Level FlightAware
06:40PM 47.3680 -78.2890 201° Southwest 457 526 36,000  Level FlightAware
06:41PM 47.3280 -78.3110 200° South 458 527 36,000  Level FlightAware
06:42PM 47.2170 -78.3750 201° Southwest 456 525 36,000  Level FlightAware
06:43PM 47.1090 -78.4360 201° Southwest 454 522 36,000  Level FlightAware
06:43PM 47.0040 -78.4950 201° Southwest 449 517 36,000  Level FlightAware
06:44PM 46.9150 -78.5450 201° Southwest 449 517 36,000  Level FlightAware
06:45PM 46.8320 -78.5910 201° Southwest 449 517 36,000  Level FlightAware
06:46PM 46.7310 -78.6470 201° Southwest 448 516 36,000  Level FlightAware
06:47PM 46.6440 -78.6950 201° Southwest 449 517 36,000  Level FlightAware
06:47PM 46.5510 -78.7470 201° Southwest 448 516 36,000  Level FlightAware
06:48PM 46.4890 -78.7810 201° Southwest 446 513 36,000  Level FlightAware
06:49PM 46.4100 -78.8250 201° Southwest 444 511 36,000  Level FlightAware
06:49PM 46.3180 -78.8750 201° Southwest 444 511 36,000  Level FlightAware
06:50PM 46.2190 -78.9290 201° Southwest 443 510 36,000  Level FlightAware
06:51PM 46.1160 -78.9850 201° Southwest 445 512 36,000  Level FlightAware
06:52PM 46.0610 -79.0150 201° Southwest 446 513 36,000  Level FlightAware
06:52PM 46.0150 -79.0400 201° Southwest 447 514 36,000  Level FlightAware
06:53PM 45.9100 -79.0960 200° South 445 512 36,000  Level FlightAware
06:54PM 45.8260 -79.1410 200° South 442 509 36,000  Level FlightAware
06:54PM 45.7730 -79.1700 201° Southwest 442 509 36,000  Level FlightAware
06:55PM 45.6920 -79.2130 200° South 441 507 36,000  Level FlightAware
06:56PM 45.6030 -79.2600 200° South 441 507 36,000  Level FlightAware
06:56PM 45.5280 -79.3000 200° South 440 506 36,000  Level FlightAware
06:57PM 45.4440 -79.3450 201° Southwest 437 503 36,000  Level FlightAware
06:58PM 45.3320 -79.4040 200° South 434 499 36,000  Level FlightAware
06:59PM 45.2500 -79.4470 200° South 437 503 36,000  Level FlightAware
06:59PM 45.1870 -79.4800 200° South 438 504 36,000  Level FlightAware
07:00PM 45.1110 -79.5200 200° South 439 505 36,000  Level FlightAware
07:01PM 45.0290 -79.5620 200° South 439 505 36,000  Level FlightAware
07:02PM 44.9100 -79.6250 201° Southwest 436 502 36,000  Level FlightAware
07:03PM 44.8000 -79.6810 200° South 437 503 36,000  Level FlightAware
07:03PM 44.7570 -79.7030 200° South 436 502 36,000  Level FlightAware
07:04PM 44.6340 -79.7660 200° South 433 498 36,000  Level FlightAware
07:05PM 44.5400 -79.8290 206° Southwest 422 486 36,000 420 Level FlightAware
07:06PM 44.4620 -79.9010 213° Southwest 422 486 36,700 840 Climbing FlightAware
07:07PM 44.3810 -79.9740 213° Southwest 426 490 37,400 780 Climbing FlightAware
07:07PM 44.3150 -80.0340 213° Southwest 433 498 37,900 540 Climbing FlightAware
07:08PM 44.2720 -80.0720 212° Southwest 434 499 38,000 60 Climbing FlightAware
07:09PM 44.1770 -80.1570 213° Southwest 432 497 38,000  Level FlightAware
07:09PM 44.0980 -80.2280 213° Southwest 432 497 38,000  Level FlightAware
07:10PM 44.0210 -80.2960 212° Southwest 431 496 38,000  Level FlightAware
07:11PM 43.9300 -80.3760 212° Southwest 430 495 38,000  Level FlightAware
07:12PM 43.8730 -80.4270 213° Southwest 429 494 38,000  Level FlightAware
07:12PM 43.7990 -80.4920 212° Southwest 428 493 38,000  Level FlightAware
07:13PM 43.7440 -80.5400 212° Southwest 428 493 38,000  Level FlightAware
07:14PM 43.6510 -80.6210 212° Southwest 429 494 38,000  Level FlightAware
07:15PM 43.5020 -80.7500 212° Southwest 429 494 38,000  Level FlightAware
07:16PM 43.4170 -80.8240 212° Southwest 430 495 38,000  Level FlightAware
07:17PM 43.3270 -80.9020 212° Southwest 431 496 38,000  Level FlightAware
07:18PM 43.2460 -80.9710 212° Southwest 428 493 38,000  Level FlightAware
07:19PM 43.1670 -81.0390 212° Southwest 427 491 38,000  Level FlightAware
07:19PM 43.0860 -81.1080 212° Southwest 428 493 38,000  Level FlightAware
07:20PM 43.0110 -81.1650 209° Southwest 436 502 38,000  Level FlightAware
07:23PM 42.8125 -81.2805 203° Southwest  Level FlightAware Approximate
07:24PM 42.7264 -81.3296 202° Southwest  Level FlightAware Approximate
07:25PM 42.6399 -81.3768 202° Southwest  Level FlightAware Approximate
07:26PM 42.5537 -81.4245 204° Southwest  Level FlightAware Approximate
07:27PM 42.4685 -81.4757 204° Southwest  Level FlightAware Approximate
07:28PM 42.3833 -81.5268 204° Southwest  Level FlightAware Approximate
07:28PM 42.1770 -81.6760 204° Southwest 443 510 38,000  Level FlightAware
07:29PM 42.0770 -81.7350 204° Southwest 444 511 38,000  Level FlightAware
07:29PM 42.0310 -81.7630 204° Southwest 443 510 38,000  Level FlightAware
07:30PM 41.9330 -81.8220 204° Southwest 441 507 38,000  Level FlightAware
07:31PM 41.8580 -81.8670 204° Southwest 441 507 38,000  Level FlightAware
07:31PM 41.7620 -81.9240 204° Southwest 441 507 38,000  Level FlightAware
07:32PM 41.6870 -81.9680 204° Southwest 440 506 38,000  Level FlightAware
07:33PM 41.6030 -82.0180 204° Southwest 438 504 38,000  Level FlightAware
07:34PM 41.5100 -82.0620 200° South 443 510 38,000  Level FlightAware
07:34PM 41.4160 -82.0930 194° South 438 504 38,000  Level FlightAware
07:35PM 41.3390 -82.1180 194° South 437 503 38,000  Level FlightAware
07:36PM 41.2460 -82.1500 195° South 438 504 38,000  Level FlightAware
07:37PM 41.1430 -82.1840 194° South 441 507 38,000  Level FlightAware
07:38PM 41.0490 -82.2150 194° South 444 511 38,000  Level FlightAware
07:38PM 41.0010 -82.2310 194° South 444 511 38,000  Level FlightAware
07:39PM 40.8900 -82.2680 194° South 439 505 38,000  Level FlightAware
07:40PM 40.7870 -82.3020 194° South 440 506 38,000  Level FlightAware
07:41PM 40.6910 -82.3340 194° South 439 505 38,000  Level FlightAware
07:41PM 40.6110 -82.3600 194° South 442 509 38,000  Level FlightAware
07:42PM 40.5350 -82.3850 194° South 445 512 38,000  Level FlightAware
07:42PM 40.4780 -82.4030 194° South 446 513 38,000  Level FlightAware
07:43PM 40.3860 -82.4330 194° South 446 513 38,000  Level FlightAware
07:44PM 40.3200 -82.4550 194° South 447 514 38,000  Level FlightAware
07:44PM 40.2270 -82.4850 194° South 448 516 38,000  Level FlightAware
07:45PM 40.1380 -82.5140 194° South 448 516 38,000  Level FlightAware
07:46PM 40.0430 -82.5450 194° South 446 513 38,000  Level FlightAware
07:47PM 39.9530 -82.5740 194° South 443 510 38,000  Level FlightAware
07:47PM 39.9140 -82.5860 193° South 442 509 38,000  Level FlightAware
07:48PM 39.8270 -82.6140 194° South 440 506 38,000  Level FlightAware
07:48PM 39.7720 -82.6310 193° South 436 502 38,000  Level FlightAware
07:49PM 39.6800 -82.6610 194° South 433 498 38,000 240 Level FlightAware
07:50PM 39.5900 -82.6890 193° South 432 497 38,400 480 Climbing FlightAware
07:51PM 39.5060 -82.7160 194° South 431 496 38,800 540 Climbing FlightAware
07:51PM 39.4650 -82.7290 194° South 431 496 39,000 420 Climbing FlightAware
07:52PM 39.3550 -82.7640 194° South 437 503 39,400 480 Climbing FlightAware
07:53PM 39.2670 -82.7920 194° South 442 509 39,800 420 Climbing FlightAware
07:53PM 39.1910 -82.8160 194° South 446 513 40,000 120 Climbing FlightAware
07:54PM 39.1170 -82.8390 194° South 444 511 40,000  Level FlightAware
07:55PM 39.0110 -82.8720 194° South 444 511 40,000  Level FlightAware
07:56PM 38.9070 -82.9040 193° South 447 514 40,000  Level FlightAware
07:56PM 38.7950 -82.9390 194° South 450 518 40,000  Level FlightAware
07:57PM 38.7210 -82.9620 194° South 451 519 40,000  Level FlightAware
07:58PM 38.6410 -82.9870 194° South 450 518 40,000  Level FlightAware
07:58PM 38.5500 -83.0150 194° South 446 513 40,000  Level FlightAware
07:59PM 38.4640 -83.0410 193° South 440 506 40,000  Level FlightAware
08:00PM 38.3680 -83.0710 194° South 437 503 40,000  Level FlightAware
08:01PM 38.2989 -83.0920 193° South 436 502 40,000  Level FlightAware ADS-B
08:02PM 38.1810 -83.1280 193° South 434 499 40,000  Level FlightAware
08:02PM 38.1050 -83.1510 193° South 432 497 40,000  Level FlightAware
08:03PM 38.0130 -83.1790 193° South 429 494 40,000  Level FlightAware
08:03PM 37.9695 -83.1923 194° South 429 494 40,000  Level FlightAware ADS-B
08:04PM 37.9056 -83.2117 193° South 431 496 40,000  Level FlightAware ADS-B
08:05PM 37.8373 -83.2323 193° South 432 497 40,000  Level FlightAware ADS-B
08:05PM 37.7677 -83.2533 193° South 432 497 40,000  Level FlightAware ADS-B
08:06PM 37.6611 -83.2856 193° South 432 497 40,000  Level FlightAware ADS-B
08:07PM 37.6031 -83.3029 193° South 431 496 40,000  Level FlightAware ADS-B
08:07PM 37.5402 -83.3217 193° South 430 495 40,000  Level FlightAware ADS-B
08:08PM 37.4796 -83.3399 193° South 430 495 40,000  Level FlightAware ADS-B
08:08PM 37.4207 -83.3574 193° South 430 495 40,000  Level FlightAware ADS-B
08:09PM 37.3608 -83.3753 193° South 430 495 40,000  Level FlightAware ADS-B
08:09PM 37.3021 -83.3927 193° South 431 496 40,000  Level FlightAware ADS-B
08:10PM 37.2393 -83.4114 193° South 430 495 40,000  Level FlightAware ADS-B
08:10PM 37.1749 -83.4307 193° South 431 496 40,000  Level FlightAware ADS-B
08:11PM 37.1149 -83.4484 193° South 431 496 40,000  Level FlightAware ADS-B
08:11PM 37.0436 -83.4695 193° South 433 498 40,000  Level FlightAware ADS-B
08:12PM 36.9845 -83.4870 193° South 434 499 40,000  Level FlightAware ADS-B
08:13PM 36.8912 -83.5145 193° South 435 501 40,000  Level FlightAware ADS-B
08:13PM 36.8319 -83.5319 193° South 435 501 40,000  Level FlightAware ADS-B
08:14PM 36.7722 -83.5494 193° South 436 502 40,000  Level FlightAware ADS-B
08:14PM 36.6993 -83.5708 193° South 436 502 40,000  Level FlightAware ADS-B
08:15PM 36.6306 -83.5909 193° South 436 502 40,000  Level FlightAware ADS-B
08:16PM 36.5480 -83.6150 193° South 436 502 40,000  Level FlightAware
08:16PM 36.5108 -83.6258 193° South 437 503 40,000  Level FlightAware ADS-B
08:16PM 36.4511 -83.6432 193° South 438 504 40,000  Level FlightAware ADS-B
08:17PM 36.3894 -83.6612 193° South 435 501 40,000  Level FlightAware ADS-B
08:17PM 36.3300 -83.6783 193° South 436 502 40,000  Level FlightAware ADS-B
08:18PM 36.2681 -83.6963 193° South 436 502 40,000  Level FlightAware ADS-B
08:18PM 36.2064 -83.7142 193° South 438 504 40,000  Level FlightAware ADS-B
08:19PM 36.1465 -83.7315 193° South 440 506 40,000  Level FlightAware ADS-B
08:20PM 36.0851 -83.7492 193° South 442 509 40,000  Level FlightAware ADS-B
08:20PM 36.0247 -83.7667 193° South 444 511 40,000  Level FlightAware ADS-B
08:21PM 35.9637 -83.7841 193° South 444 511 40,000  Level FlightAware ADS-B
08:21PM 35.8925 -83.8044 193° South 441 507 40,000  Level FlightAware ADS-B
08:22PM 35.8317 -83.8218 193° South 439 505 40,000  Level FlightAware ADS-B
08:22PM 35.7721 -83.8389 193° South 437 503 40,000  Level FlightAware ADS-B
08:23PM 35.7024 -83.8588 193° South 437 503 40,000  Level FlightAware ADS-B
08:23PM 35.6419 -83.8759 193° South 437 503 40,000  Level FlightAware ADS-B
08:24PM 35.5818 -83.8930 193° South 437 503 40,000  Level FlightAware ADS-B
08:24PM 35.5203 -83.9106 193° South 437 503 40,000  Level FlightAware ADS-B
08:25PM 35.4610 -83.9274 193° South 438 504 40,000  Level FlightAware ADS-B
08:25PM 35.4007 -83.9445 193° South 438 504 40,000  Level FlightAware ADS-B
08:26PM 35.3237 -83.9663 193° South 438 504 40,000  Level FlightAware ADS-B
08:26PM 35.2609 -83.9841 193° South 437 503 40,000  Level FlightAware ADS-B
08:27PM 35.1974 -84.0019 193° South 437 503 40,000  Level FlightAware ADS-B
08:28PM 35.1237 -84.0227 193° South 437 503 40,000  Level FlightAware ADS-B
08:28PM 35.0617 -84.0401 193° South 436 502 40,000  Level FlightAware ADS-B
08:29PM 35.0018 -84.0568 193° South 434 499 40,000  Level FlightAware ADS-B
08:29PM 34.9435 -84.0731 193° South 433 498 40,000  Level FlightAware ADS-B
08:30PM 34.8844 -84.0896 193° South 432 497 40,000  Level FlightAware ADS-B
08:30PM 34.8259 -84.1059 193° South 432 497 40,000  Level FlightAware ADS-B
08:31PM 34.7656 -84.1228 193° South 432 497 40,000  Level FlightAware ADS-B
08:31PM 34.7057 -84.1394 193° South 433 498 40,000  Level FlightAware ADS-B
08:32PM 34.6290 -84.1610 193° South 433 498 40,000  Level FlightAware
08:32PM 34.5984 -84.1694 193° South 434 499 40,000  Level FlightAware ADS-B
08:33PM 34.5393 -84.1857 193° South 435 501 40,000  Level FlightAware ADS-B
08:33PM 34.4807 -84.2020 193° South 435 501 40,000  Level FlightAware ADS-B
08:34PM 34.4197 -84.2188 193° South 436 502 40,000  Level FlightAware ADS-B
08:34PM 34.3596 -84.2353 193° South 436 502 40,000  Level FlightAware ADS-B
08:35PM 34.3004 -84.2516 193° South 437 503 40,000  Level FlightAware ADS-B
08:35PM 34.2412 -84.2679 193° South 437 503 40,000  Level FlightAware ADS-B
08:36PM 34.1497 -84.2931 193° South 438 504 40,000  Level FlightAware ADS-B
08:36PM 34.0839 -84.3112 193° South 441 507 40,000  Level FlightAware ADS-B
08:37PM 34.0205 -84.3285 193° South 443 510 40,000  Level FlightAware ADS-B
08:37PM 33.9883 -84.3365 192° South 447 514 40,000  Level FlightAware ADS-B
08:37PM 33.9565 -84.3381 182° South 459 528 40,000  Level FlightAware ADS-B
08:38PM 33.9433 -84.3368 175° South 462 532 40,000  Level FlightAware ADS-B
08:38PM 33.8788 -84.3291 174° South 463 533 40,000  Level FlightAware ADS-B
08:39PM 33.8142 -84.3216 174° South 463 533 40,000  Level FlightAware ADS-B
08:39PM 33.7500 -84.3142 175° South 463 533 40,000  Level FlightAware ADS-B
08:40PM 33.6686 -84.3049 175° South 462 532 40,000  Level FlightAware ADS-B
08:40PM 33.6047 -84.2976 175° South 461 531 40,000  Level FlightAware ADS-B
08:41PM 33.5345 -84.2898 175° South 460 529 40,000  Level FlightAware ADS-B
08:41PM 33.4680 -84.2824 175° South 460 529 40,000  Level FlightAware ADS-B
08:42PM 33.4024 -84.2752 175° South 460 529 40,000  Level FlightAware ADS-B
08:42PM 33.3420 -84.2680 174° South 460 529 40,000  Level FlightAware
08:43PM 33.2470 -84.2581 175° South 460 529 40,000  Level FlightAware ADS-B
08:44PM 33.1340 -84.2460 175° South 460 529 40,000  Level FlightAware
08:45PM 33.0460 -84.2360 175° South 458 527 40,000  Level FlightAware
08:45PM 32.9450 -84.2250 175° South 457 526 40,000  Level FlightAware
08:46PM 32.8410 -84.2140 175° South 456 525 40,000  Level FlightAware
08:47PM 32.7000 -84.1980 175° South 455 524 40,000  Level FlightAware
08:48PM 32.6000 -84.1870 175° South 454 522 40,000  Level FlightAware
08:49PM 32.4860 -84.1730 174° South 454 522 40,000  Level FlightAware
08:50PM 32.4210 -84.1650 174° South 454 522 40,000  Level FlightAware
08:51PM 32.3350 -84.1540 174° South 454 522 40,000  Level FlightAware
08:51PM 32.2500 -84.1440 174° South 454 522 40,000  Level FlightAware
08:52PM 32.1850 -84.1360 174° South 454 522 40,000  Level FlightAware
08:52PM 32.1420 -84.1300 173° South 454 522 40,000  Level FlightAware
08:53PM 32.0570 -84.1200 174° South 454 522 40,000  Level FlightAware
08:54PM 31.9710 -84.1090 174° South 454 522 40,000  Level FlightAware
08:55PM 31.7280 -84.0940 177° South 448 516 40,000 -300 Level FlightAware
08:56PM 31.6210 -84.0830 175° South 451 519 39,500 -780 Descending FlightAware
08:57PM 31.5300 -84.0730 175° South 449 517 38,800 -1,080 Descending FlightAware
08:57PM 31.4480 -84.0640 175° South 445 512 38,100 -960 Descending FlightAware
08:58PM 31.3580 -84.0410 168° South 476 548 37,500 -900 Descending FlightAware
08:59PM 31.2930 -84.0080 157° South 475 547 37,000 -480 Descending FlightAware
08:59PM 31.2180 -83.9689 156° South 466 536 37,000  Level FlightAware ADS-B (KTLH)
09:00PM 31.1465 -83.9333 157° South 467 537 37,000  Level FlightAware ADS-B (KTLH)
09:01PM 31.0568 -83.8896 157° South 466 536 37,000  Level FlightAware ADS-B (KTLH)
09:01PM 30.9731 -83.8486 157° South 464 534 37,000  Level FlightAware ADS-B (KTLH)
09:02PM 30.9173 -83.8213 157° South 463 533 37,000  Level FlightAware ADS-B (KTLH)
09:02PM 30.8478 -83.7874 157° South 462 532 37,000  Level FlightAware ADS-B (KTLH)
09:03PM 30.7848 -83.7568 157° South 460 529 37,000  Level FlightAware ADS-B (KTLH)
09:04PM 30.6606 -83.6964 157° South 459 528 37,000  Level FlightAware ADS-B (KTLH)
09:05PM 30.5829 -83.6587 157° South 459 528 37,000  Level FlightAware ADS-B (KTLH)
09:05PM 30.5216 -83.6290 157° South 457 526 37,000  Level FlightAware ADS-B (KTLH)
09:06PM 30.4459 -83.5925 157° South 457 526 37,000  Level FlightAware ADS-B (KTLH)
09:06PM 30.3838 -83.5625 157° South 457 526 37,000  Level FlightAware ADS-B (KTLH)
09:07PM 30.3149 -83.5291 157° South 455 524 37,000  Level FlightAware ADS-B (KTLH)
09:08PM 30.2542 -83.4999 157° South 454 522 37,000  Level FlightAware ADS-B (KTLH)
09:08PM 30.1775 -83.4630 157° South 454 522 37,000  Level FlightAware ADS-B (KTLH)
09:11PM 29.9781 -83.3658 157° South  Level FlightAware Approximate
09:11PM 29.8130 -83.2890 157° South 453 521 37,000  Level FlightAware
09:12PM 29.8927 -83.3243 157° South  Level FlightAware Approximate
09:12PM 29.7250 -83.2470 157° South 453 521 37,000  Level FlightAware
09:12PM 29.6760 -83.2230 157° South 452 520 37,000  Level FlightAware
09:13PM 29.5670 -83.1720 158° South 451 519 37,000  Level FlightAware
09:14PM 29.4890 -83.1350 158° South 452 520 37,000  Level FlightAware
09:15PM 29.3810 -83.0840 158° South 452 520 37,000  Level FlightAware
09:16PM 29.2820 -83.0370 158° South 451 519 37,000  Level FlightAware
09:19PM 29.0533 -82.9219 158° South  Level FlightAware Approximate
09:20PM 28.9675 -82.8822 158° South  Level FlightAware Approximate
09:20PM 28.7844 -82.8036 158° South 457 526 37,000  Level FlightAware ADS-B (KMCO)
09:21PM 28.6752 -82.7528 158° South 457 526 37,000  Level FlightAware ADS-B (KMCO)
09:21PM 28.6168 -82.7256 158° South 457 526 37,000  Level FlightAware ADS-B (KMCO)
09:22PM 28.5524 -82.6957 158° South 456 525 37,000  Level FlightAware ADS-B (KMCO)
09:22PM 28.4941 -82.6686 158° South 456 525 37,000  Level FlightAware ADS-B (KMCO)
09:23PM 28.4355 -82.6414 158° South 455 524 37,000  Level FlightAware ADS-B (KMCO)
09:24PM 28.3723 -82.6122 158° South 453 521 37,000  Level FlightAware ADS-B (KMCO)
09:24PM 28.2982 -82.5779 158° South 449 517 37,000  Level FlightAware ADS-B (KMCO)
09:25PM 28.2473 -82.5544 158° South 449 517 37,000  Level FlightAware ADS-B (KMCO)
09:25PM 28.1774 -82.5223 158° South 449 517 37,000  Level FlightAware ADS-B (KMCO)
09:26PM 28.0997 -82.4865 158° South 449 517 37,000  Level FlightAware ADS-B (KMCO)
09:27PM 28.0215 -82.4505 158° South 450 518 37,000  Level FlightAware ADS-B (KMCO)
09:27PM 27.9713 -82.4351 165° South 425 489 37,000  Level FlightAware ADS-B (KMCO)
09:27PM 27.9436 -82.4341 178° South 406 467 37,000  Level FlightAware ADS-B (KMCO)
09:28PM 27.8713 -82.4360 181° South 409 471 37,000  Level FlightAware ADS-B (KMCO)
09:29PM 27.7884 -82.4376 181° South 412 474 37,000  Level FlightAware ADS-B (KMCO)
09:29PM 27.7300 -82.4390 181° South 413 475 37,000  Level FlightAware
09:30PM 27.6688 -82.4401 181° South 413 475 37,000  Level FlightAware ADS-B (KMCO)
09:32PM 27.5454 -82.3061 136° Southeast  Level FlightAware Approximate
09:32PM 27.4210 -82.4460 136° Southeast 414 476 37,000  Level FlightAware
09:33PM 27.3098 -82.4480 181° South 416 479 37,000  Level FlightAware ADS-B (KMCO)
09:33PM 27.2653 -82.4490 181° South 417 480 37,000  Level FlightAware ADS-B (KMCO)
09:34PM 27.1871 -82.4506 181° South 417 480 37,000  Level FlightAware ADS-B (KMCO)
09:34PM 27.1134 -82.4524 181° South 416 479 37,000  Level FlightAware ADS-B (KMCO)
09:35PM 27.0360 -82.4540 181° South 414 476 37,000  Level FlightAware
09:36PM 26.9464 -82.4559 181° South 413 475 37,000  Level FlightAware ADS-B (KMCO)
09:37PM 26.8786 -82.4574 181° South 414 476 37,000 -180 Level FlightAware ADS-B (KMCO)
09:39PM 26.6942 -82.4616 181° South  Level FlightAware Approximate
09:40PM 26.6020 -82.4637 181° South  Level FlightAware Approximate
09:41PM 26.5098 -82.4658 181° South  Level FlightAware Approximate
09:42PM 26.4176 -82.4679 181° South  Level FlightAware Approximate
09:43PM 26.3254 -82.4700 181° South  Level FlightAware Approximate
09:44PM 26.2332 -82.4721 181° South  Level FlightAware Approximate
09:45PM 26.1410 -82.4742 181° South  Level FlightAware Approximate
09:46PM 26.0488 -82.4762 181° South  Level FlightAware Approximate
09:47PM 25.9566 -82.4783 181° South  Level FlightAware Approximate
09:48PM 25.8645 -82.4804 181° South  Level FlightAware Approximate
09:49PM 25.7723 -82.4825 181° South  Level FlightAware Approximate
09:50PM 25.6802 -82.4858 182° South  Level FlightAware Approximate
09:51PM 25.5881 -82.4900 182° South  Level FlightAware Approximate
09:52PM 25.4959 -82.4941 182° South  Level FlightAware Approximate
09:52PM 25.0970 -82.4960 182° South 421 484 34,800  Level FlightAware
09:53PM 25.0370 -82.4970 181° South 421 484 34,800  Level FlightAware
09:53PM 24.9760 -82.4980 181° South 421 484 34,800 -2,340 Level FlightAware
09:54PM 24.8510 -82.5010 181° South 435 501 32,000 -1,740 Descending FlightAware
09:55PM 24.7450 -82.5030 181° South 435 501 32,000  Level FlightAware
09:56PM 24.6810 -82.5040 181° South 435 501 32,000  Level FlightAware
09:56PM 24.6200 -82.5050 181° South 435 501 32,000  Level FlightAware
09:57PM 24.5580 -82.5070 182° South 435 501 32,000  Level FlightAware
09:58PM 24.4760 -82.5080 181° South 435 501 32,000 -2,820 Level FlightAware
09:58PM 24.3406 -82.5133 181° South 421 484 27,300 -3,540 Descending Miami Center
09:59PM 24.2258 -82.5172 182° South 421 484 25,500 -1,800 Descending Miami Center
10:00PM 24.1108 -82.5189 181° South 421 484 23,800 -1,740 Descending Miami Center
10:01PM 23.9961 -82.5206 181° South 421 484 22,000 -1,740 Descending Miami Center
10:02PM 23.8869 -82.5317 185° South 415 478 20,400 -1,680 Descending Miami Center
10:04PM 23.7860 -82.4911 160° South  Level FlightAware Approximate
10:11PM 23.1420 -82.4167 180° South  Level FlightAware Approximate
10:12PM 23.0511 -82.4002 170° South  Level FlightAware Approximate
10:13PM 22.9891 -82.4091 180° South  Level Estimated
10:14PM 22.9891 -82.4091 180° South  Level Estimated
10:15PM 22.9891 -82.4091 180° South  Level Estimated
10:16PM 22.9891 -82.4091 180° South  Level Estimated
10:17PM 22.9891 -82.4091 180° South  Level Estimated
10:18PM 22.9891 -82.4091 180° South  Level Estimated
10:19PM 22.9891 -82.4091 180° South  Level Estimated
10:20PM 22.9891 -82.4091 180° South  Level Estimated
10:21PM 22.9891 -82.4091 180° South  Level Estimated
10:22PM 22.9891 -82.4091 180° South  Level Estimated
10:23PM 22.9891 -82.4091 180° South  Level Estimated
10:24PM 22.9891 -82.4091 180° South  Level Estimated
10:25PM 22.9891 -82.4091 180° South  Level Estimated
10:26PM 22.9891 -82.4091 180° South  Level Estimated
10:27PM 22.9891 -82.4091 180° South  Level Estimated
10:28PM 22.9891 -82.4091 180° South  Level Estimated
10:29PM 22.9891 -82.4091 180° South  Level Estimated
10:30PM 22.9891 -82.4091 180° South  Level Estimated
10:31PM 22.9891 -82.4091 180° South  Level Estimated
10:32PM 22.9891 -82.4091 180° South  Level Estimated